createdAt,value
2022-08-24T00:00:15.817Z,40.72
2022-08-24T00:02:44.807Z,40.47
2022-08-24T00:05:14.985Z,40.68
2022-08-24T00:07:46.913Z,40.81
2022-08-24T00:10:16.248Z,40.92
2022-08-24T00:12:46.734Z,41.16
2022-08-24T00:15:16.682Z,41.18
2022-08-24T00:17:46.790Z,41.22
2022-08-24T00:20:16.717Z,41.29
2022-08-24T00:22:46.063Z,41.38
2022-08-24T00:25:17.498Z,41.46
2022-08-24T00:27:47.465Z,41.55
2022-08-24T00:30:18.669Z,41.68
2022-08-24T00:32:48.239Z,41.57
2022-08-24T00:35:18.358Z,41.54
2022-08-24T00:37:48.777Z,41.73
2022-08-24T00:40:25.912Z,41.75
2022-08-24T00:42:56.235Z,41.91
2022-08-24T00:45:26.067Z,41.75
2022-08-24T00:48:03.836Z,41.79
2022-08-24T00:50:48.168Z,41.80
2022-08-24T00:53:35.353Z,41.69
2022-08-24T00:56:10.842Z,41.63
2022-08-24T00:59:10.893Z,41.72
2022-08-24T01:01:41.603Z,41.55
2022-08-24T01:04:15.525Z,41.60
2022-08-24T01:06:45.880Z,41.70
2022-08-24T01:09:15.731Z,41.78
2022-08-24T01:11:46.826Z,41.90
2022-08-24T01:14:17.829Z,42.08
2022-08-24T01:17:05.715Z,42.18
2022-08-24T01:19:40.309Z,42.00
2022-08-24T01:22:21.121Z,42.02
2022-08-24T01:24:50.743Z,42.29
2022-08-24T01:27:23.910Z,42.29
2022-08-24T01:29:53.127Z,42.29
2022-08-24T01:32:24.432Z,42.33
2022-08-24T01:34:55.819Z,42.22
2022-08-24T01:37:26.043Z,42.44
2022-08-24T01:39:56.928Z,42.39
2022-08-24T01:42:29.863Z,42.32
2022-08-24T01:45:01.279Z,42.52
2022-08-24T01:47:31.231Z,42.48
2022-08-24T01:50:02.059Z,42.79
2022-08-24T01:52:48.756Z,42.59
2022-08-24T01:55:10.259Z,43.05
2022-08-24T01:57:41.266Z,42.72
2022-08-24T02:00:14.671Z,42.69
2022-08-24T02:02:43.907Z,43.37
2022-08-24T02:05:14.005Z,43.55
2022-08-24T02:07:46.358Z,43.90
2022-08-24T02:10:16.560Z,43.64
2022-08-24T02:12:49.925Z,43.05
2022-08-24T02:15:20.300Z,43.28
2022-08-24T02:17:50.904Z,43.86
2022-08-24T02:20:21.699Z,43.93
2022-08-24T02:22:53.049Z,43.65
2022-08-24T02:25:24.066Z,44.22
2022-08-24T02:27:54.409Z,44.63
2022-08-24T02:30:24.746Z,44.01
2022-08-24T02:32:54.619Z,44.18
2022-08-24T02:35:25.849Z,44.03
2022-08-24T02:37:55.617Z,43.78
2022-08-24T02:40:25.836Z,43.29
2022-08-24T02:42:55.500Z,43.34
2022-08-24T02:45:25.418Z,43.02
2022-08-24T02:47:55.690Z,42.85
2022-08-24T02:50:27.414Z,42.86
2022-08-24T02:52:58.260Z,42.71
2022-08-24T02:55:28.325Z,42.86
2022-08-24T02:57:58.143Z,42.48
2022-08-24T03:00:27.589Z,42.68
2022-08-24T03:02:58.534Z,42.82
2022-08-24T03:05:28.615Z,42.69
2022-08-24T03:07:57.608Z,42.87
2022-08-24T03:10:28.132Z,42.67
2022-08-24T03:12:59.525Z,42.98
2022-08-24T03:15:29.759Z,43.29
2022-08-24T03:17:59.978Z,42.94
2022-08-24T03:20:30.406Z,43.46
2022-08-24T03:22:59.490Z,43.02
2022-08-24T03:25:30.447Z,42.27
2022-08-24T03:28:00.194Z,42.62
2022-08-24T03:30:31.705Z,42.20
2022-08-24T03:33:05.191Z,42.12
2022-08-24T03:35:34.698Z,41.83
2022-08-24T03:38:04.058Z,42.05
2022-08-24T03:40:35.123Z,42.35
2022-08-24T03:43:05.100Z,42.05
2022-08-24T03:45:35.827Z,42.32
2022-08-24T03:48:06.533Z,41.77
2022-08-24T03:50:37.539Z,41.65
2022-08-24T04:00:37.589Z,41.91
2022-08-24T04:03:07.935Z,41.54
2022-08-24T04:05:38.902Z,41.25
2022-08-24T04:08:09.821Z,41.13
2022-08-24T04:10:41.114Z,40.96
2022-08-24T04:13:10.349Z,40.72
2022-08-24T04:15:43.295Z,40.38
2022-08-24T04:18:13.564Z,40.63
2022-08-24T04:20:45.057Z,40.67
2022-08-24T04:23:17.181Z,40.56
2022-08-24T04:25:48.485Z,40.61
2022-08-24T04:28:19.162Z,40.49
2022-08-24T04:30:52.833Z,40.55
2022-08-24T04:33:27.499Z,40.36
2022-08-24T04:35:57.380Z,40.35
2022-08-24T04:38:28.438Z,40.56
2022-08-24T04:41:13.542Z,40.71
2022-08-24T04:43:45.087Z,40.47
2022-08-24T04:46:17.890Z,40.43
2022-08-24T04:48:49.070Z,40.34
2022-08-24T04:51:19.772Z,40.22
2022-08-24T04:53:50.401Z,40.32
2022-08-24T04:56:25.402Z,40.17
2022-08-24T04:58:57.159Z,40.09
2022-08-24T05:01:29.705Z,40.12
2022-08-24T05:04:00.369Z,40.03
2022-08-24T05:06:32.058Z,40.18
2022-08-24T05:09:02.523Z,39.72
2022-08-24T05:11:33.094Z,39.71
2022-08-24T05:14:03.734Z,39.85
2022-08-24T05:16:34.746Z,39.96
2022-08-24T05:19:06.882Z,39.66
2022-08-24T05:21:35.959Z,39.67
2022-08-24T05:24:05.737Z,39.44
2022-08-24T05:26:35.707Z,39.51
2022-08-24T05:29:06.258Z,39.42
2022-08-24T05:31:37.536Z,39.44
2022-08-24T05:34:10.826Z,39.50
2022-08-24T05:36:41.879Z,39.35
2022-08-24T05:39:14.066Z,39.35
2022-08-24T05:41:46.592Z,39.30
2022-08-24T05:44:18.728Z,39.42
2022-08-24T05:46:49.960Z,38.85
2022-08-24T05:49:19.273Z,38.84
2022-08-24T05:51:49.727Z,38.87
2022-08-24T05:54:18.860Z,38.83
2022-08-24T05:56:54.699Z,39.13
2022-08-24T05:59:24.900Z,38.83
2022-08-24T06:01:55.035Z,38.83
2022-08-24T06:04:24.349Z,38.82
2022-08-24T06:06:55.425Z,39.13
2022-08-24T06:09:25.463Z,38.69
2022-08-24T06:11:55.578Z,38.57
2022-08-24T06:14:27.150Z,38.92
2022-08-24T06:16:59.876Z,38.26
2022-08-24T06:19:29.729Z,38.15
2022-08-24T06:21:59.907Z,38.16
2022-08-24T06:24:49.410Z,38.41
2022-08-24T06:27:23.132Z,38.06
2022-08-24T06:30:00.842Z,38.15
2022-08-24T06:32:48.975Z,38.07
2022-08-24T06:35:22.708Z,37.93
2022-08-24T06:37:53.030Z,37.86
2022-08-24T06:40:24.629Z,37.59
2022-08-24T06:42:54.304Z,37.62
2022-08-24T06:45:26.733Z,37.92
2022-08-24T06:47:56.793Z,37.98
2022-08-24T06:50:26.890Z,37.74
2022-08-24T06:52:58.170Z,37.65
2022-08-24T06:55:29.499Z,37.72
2022-08-24T06:57:59.018Z,37.63
2022-08-24T07:00:30.633Z,38.59
2022-08-24T07:03:02.129Z,38.64
2022-08-24T07:05:32.369Z,37.67
2022-08-24T07:08:04.711Z,36.74
2022-08-24T07:10:34.517Z,36.29
2022-08-24T07:13:04.328Z,35.04
2022-08-24T07:15:35.562Z,34.45
2022-08-24T07:18:10.070Z,34.21
2022-08-24T07:20:42.489Z,33.20
2022-08-24T07:23:14.688Z,33.20
2022-08-24T07:25:49.615Z,32.55
2022-08-24T07:28:17.490Z,31.51
2022-08-24T07:30:49.147Z,30.60
2022-08-24T07:33:21.117Z,30.23
2022-08-24T07:35:50.479Z,29.80
2022-08-24T07:38:21.903Z,29.36
2022-08-24T07:43:24.268Z,28.95
2022-08-24T07:45:54.537Z,28.56
2022-08-24T07:48:24.818Z,27.92
2022-08-24T07:50:54.892Z,28.00
2022-08-24T07:53:32.386Z,28.09
2022-08-24T07:55:56.890Z,27.55
2022-08-24T07:58:26.686Z,27.46
2022-08-24T08:00:57.373Z,27.52
2022-08-24T08:03:29.149Z,27.30
2022-08-24T08:06:04.301Z,27.91
2022-08-24T08:08:39.774Z,26.37
2022-08-24T08:11:11.287Z,26.54
2022-08-24T08:13:44.281Z,25.75
2022-08-24T08:16:14.467Z,25.67
2022-08-24T08:18:45.505Z,25.00
2022-08-24T08:21:17.395Z,25.26
2022-08-24T08:24:04.617Z,24.91
2022-08-24T08:26:37.670Z,24.44
2022-08-24T08:29:15.309Z,24.56
2022-08-24T08:31:44.272Z,24.02
2022-08-24T08:34:13.814Z,24.36
2022-08-24T08:36:44.688Z,24.04
2022-08-24T08:39:15.929Z,23.75
2022-08-24T08:42:05.705Z,24.05
2022-08-24T08:44:48.238Z,23.92
2022-08-24T08:47:43.782Z,24.24
2022-08-24T08:50:25.204Z,23.87
2022-08-24T08:53:21.404Z,23.87
2022-08-24T08:56:18.675Z,23.51
2022-08-24T08:59:17.978Z,23.73
2022-08-24T09:02:11.557Z,23.76
2022-08-24T09:05:24.766Z,23.91
2022-08-24T09:08:21.623Z,23.98
2022-08-24T09:11:21.936Z,23.62
2022-08-24T09:14:31.570Z,23.66
2022-08-24T09:17:19.146Z,23.45
2022-08-24T09:20:13.281Z,23.30
2022-08-24T09:22:46.599Z,23.71
2022-08-24T09:25:41.631Z,23.70
2022-08-24T09:28:46.737Z,23.68
2022-08-24T09:31:45.861Z,23.70
2022-08-24T09:35:01.694Z,23.66
2022-08-24T09:37:47.750Z,23.77
2022-08-24T09:40:53.407Z,23.57
2022-08-24T09:43:58.319Z,23.76
2022-08-24T09:46:53.893Z,23.53
2022-08-24T09:50:03.127Z,23.39
2022-08-24T09:53:08.884Z,23.77
2022-08-24T09:56:19.281Z,24.14
2022-08-24T09:59:08.677Z,24.19
2022-08-24T10:02:05.317Z,24.33
2022-08-24T10:04:58.517Z,24.38
2022-08-24T10:07:56.122Z,24.29
2022-08-24T10:10:28.840Z,24.30
2022-08-24T10:13:24.495Z,24.46
2022-08-24T10:16:26.589Z,24.52
2022-08-24T10:19:28.527Z,24.50
2022-08-24T10:22:19.607Z,24.56
2022-08-24T10:25:03.943Z,24.33
2022-08-24T10:27:56.874Z,23.95
2022-08-24T10:30:38.601Z,23.99
2022-08-24T10:33:28.396Z,24.22
2022-08-24T10:36:24.519Z,23.97
2022-08-24T10:39:20.053Z,23.96
2022-08-24T10:41:59.952Z,24.04
2022-08-24T10:44:49.971Z,24.68
2022-08-24T10:47:30.865Z,24.52
2022-08-24T10:50:31.440Z,24.54
2022-08-24T10:53:20.968Z,24.73
2022-08-24T10:56:08.010Z,24.48
2022-08-24T10:58:51.870Z,24.57
2022-08-24T11:01:29.018Z,24.65
2022-08-24T11:04:14.365Z,24.79
2022-08-24T11:07:07.158Z,24.98
2022-08-24T11:09:56.038Z,25.17
2022-08-24T11:12:30.238Z,25.43
2022-08-24T11:15:02.585Z,25.70
2022-08-24T11:17:34.898Z,25.44
2022-08-24T11:20:05.915Z,25.61
2022-08-24T11:22:41.108Z,25.38
2022-08-24T11:25:19.078Z,25.48
2022-08-24T11:27:51.808Z,25.41
2022-08-24T11:30:25.224Z,25.34
2022-08-24T11:32:58.231Z,25.52
2022-08-24T11:35:37.186Z,25.66
2022-08-24T11:38:17.100Z,25.56
2022-08-24T11:41:14.277Z,25.45
2022-08-24T11:44:07.310Z,24.92
2022-08-24T11:46:45.798Z,25.02
2022-08-24T11:49:24.314Z,24.90
2022-08-24T11:52:05.428Z,25.22
2022-08-24T11:55:12.193Z,25.49
2022-08-24T11:58:03.645Z,25.34
2022-08-24T12:00:52.224Z,25.41
2022-08-24T12:03:52.499Z,25.31
2022-08-24T12:06:56.691Z,25.26
2022-08-24T12:09:46.817Z,25.46
2022-08-24T12:12:43.054Z,25.38
2022-08-24T12:15:28.653Z,25.46
2022-08-24T12:18:34.705Z,25.39
2022-08-24T12:21:04.971Z,25.27
2022-08-24T12:23:44.818Z,25.28
2022-08-24T12:26:43.646Z,25.37
2022-08-24T12:29:52.908Z,25.54
2022-08-24T12:32:29.222Z,25.32
2022-08-24T12:35:06.646Z,25.26
2022-08-24T12:37:49.595Z,25.31
2022-08-24T12:40:42.086Z,25.57
2022-08-24T12:43:25.754Z,25.72
2022-08-24T12:46:01.260Z,25.80
2022-08-24T12:48:42.684Z,25.82
2022-08-24T12:51:43.997Z,25.77
2022-08-24T12:54:27.526Z,25.22
2022-08-24T12:57:39.643Z,24.95
2022-08-24T13:00:18.138Z,25.05
2022-08-24T13:03:06.759Z,25.19
2022-08-24T13:05:44.400Z,25.25
2022-08-24T13:08:22.762Z,25.52
2022-08-24T13:11:09.153Z,25.32
2022-08-24T13:14:09.066Z,25.27
2022-08-24T13:17:01.994Z,25.24
2022-08-24T13:19:39.860Z,25.33
2022-08-24T13:22:17.998Z,25.26
2022-08-24T13:24:58.621Z,24.97
2022-08-24T13:27:43.289Z,25.08
2022-08-24T13:30:23.862Z,25.03
2022-08-24T13:33:04.283Z,24.93
2022-08-24T13:35:57.748Z,25.06
2022-08-24T13:38:42.672Z,25.00
2022-08-24T13:41:38.592Z,25.11
2022-08-24T13:44:17.105Z,25.18
2022-08-24T13:47:19.556Z,24.87
2022-08-24T13:50:13.201Z,25.08
2022-08-24T13:52:51.899Z,25.09
2022-08-24T13:55:50.524Z,25.24
2022-08-24T13:58:39.210Z,25.10
2022-08-24T14:01:36.721Z,24.70
2022-08-24T14:04:26.220Z,24.94
2022-08-24T14:07:25.042Z,25.08
2022-08-24T14:10:46.200Z,25.37
2022-08-24T14:14:08.384Z,25.66
2022-08-24T14:17:35.946Z,25.45
2022-08-24T14:20:45.925Z,25.49
2022-08-24T14:23:32.905Z,25.71
2022-08-24T14:26:31.374Z,25.86
2022-08-24T14:29:22.189Z,26.14
2022-08-24T14:32:12.600Z,26.41
2022-08-24T14:34:51.270Z,26.63
2022-08-24T14:38:14.850Z,26.75
2022-08-24T14:41:10.068Z,26.75
2022-08-24T14:44:13.705Z,26.91
2022-08-24T14:47:00.481Z,27.03
2022-08-24T14:50:13.160Z,27.04
2022-08-24T14:53:11.522Z,27.14
2022-08-24T14:55:47.012Z,27.08
2022-08-24T14:58:44.894Z,27.22
2022-08-24T15:01:40.030Z,27.15
2022-08-24T15:04:36.323Z,26.98
2022-08-24T15:07:29.284Z,27.08
2022-08-24T15:09:59.530Z,26.99
2022-08-24T15:12:39.408Z,27.09
2022-08-24T15:15:47.690Z,26.98
2022-08-24T15:18:36.205Z,27.15
2022-08-24T15:21:46.541Z,27.16
2022-08-24T15:24:39.142Z,27.02
2022-08-24T15:27:30.851Z,27.24
2022-08-24T15:30:02.989Z,27.11
2022-08-24T15:32:48.761Z,27.06
2022-08-24T15:35:31.772Z,27.36
2022-08-24T15:38:27.468Z,27.49
2022-08-24T15:41:17.181Z,27.67
2022-08-24T15:44:00.389Z,27.91
2022-08-24T15:46:35.334Z,28.11
2022-08-24T15:49:18.556Z,28.31
2022-08-24T15:52:00.845Z,28.33
2022-08-24T15:54:46.208Z,28.45
2022-08-24T15:57:26.686Z,28.63
2022-08-24T16:00:14.228Z,28.82
2022-08-24T16:02:43.803Z,28.88
2022-08-24T16:05:27.285Z,28.94
2022-08-24T16:08:08.033Z,28.94
2022-08-24T16:10:52.858Z,29.33
2022-08-24T16:13:29.549Z,29.42
2022-08-24T16:16:11.584Z,29.21
2022-08-24T16:18:58.419Z,29.30
2022-08-24T16:21:39.873Z,29.28
2022-08-24T16:24:22.519Z,29.44
2022-08-24T16:27:08.660Z,29.06
2022-08-24T16:29:45.061Z,29.06
2022-08-24T16:32:31.705Z,29.21
2022-08-24T16:35:12.439Z,29.29
2022-08-24T16:37:42.775Z,29.47
2022-08-24T16:40:12.846Z,29.63
2022-08-24T16:42:44.367Z,29.89
2022-08-24T16:45:18.424Z,30.11
2022-08-24T16:47:48.765Z,30.29
2022-08-24T16:50:19.553Z,30.49
2022-08-24T16:52:50.147Z,30.76
2022-08-24T16:55:21.521Z,30.87
2022-08-24T16:57:51.374Z,31.02
2022-08-24T17:00:21.807Z,31.26
2022-08-24T17:02:52.154Z,31.66
2022-08-24T17:05:21.993Z,31.66
2022-08-24T17:07:51.939Z,31.89
2022-08-24T17:10:23.667Z,32.13
2022-08-24T17:12:54.106Z,32.32
2022-08-24T17:15:23.890Z,32.53
2022-08-24T17:18:06.353Z,32.74
2022-08-24T17:20:41.763Z,32.89
2022-08-24T17:23:15.972Z,33.07
2022-08-24T17:25:45.480Z,33.21
2022-08-24T17:28:18.003Z,33.28
2022-08-24T17:30:51.387Z,33.44
2022-08-24T17:33:20.405Z,33.50
2022-08-24T17:35:51.514Z,33.65
2022-08-24T17:38:21.977Z,33.79
2022-08-24T17:40:52.030Z,33.91
2022-08-24T17:43:24.822Z,34.07
2022-08-24T17:45:54.622Z,34.27
2022-08-24T17:48:26.181Z,34.37
2022-08-24T17:50:55.149Z,34.53
2022-08-24T17:53:24.907Z,34.88
2022-08-24T17:55:55.248Z,35.23
2022-08-24T17:58:25.658Z,35.09
2022-08-24T18:00:55.077Z,35.02
2022-08-24T18:03:25.490Z,35.00
2022-08-24T18:05:56.181Z,35.34
2022-08-24T18:08:27.045Z,35.37
2022-08-24T18:10:56.876Z,35.24
2022-08-24T18:13:26.794Z,35.42
2022-08-24T18:15:57.171Z,35.40
2022-08-24T18:18:27.434Z,35.46
2022-08-24T18:20:57.633Z,35.56
2022-08-24T18:23:26.649Z,35.88
2022-08-24T18:25:56.944Z,35.82
2022-08-24T18:28:26.351Z,35.96
2022-08-24T18:30:57.069Z,35.93
2022-08-24T18:33:26.994Z,35.87
2022-08-24T18:35:56.918Z,36.07
2022-08-24T18:38:28.164Z,36.01
2022-08-24T18:40:58.816Z,35.93
2022-08-24T18:43:29.202Z,36.08
2022-08-24T18:45:59.516Z,36.62
2022-08-24T18:48:29.811Z,36.57
2022-08-24T18:51:00.280Z,36.53
2022-08-24T18:53:30.231Z,36.65
2022-08-24T18:56:08.197Z,36.69
2022-08-24T18:58:33.158Z,36.82
2022-08-24T19:01:04.369Z,36.85
2022-08-24T19:03:35.718Z,37.01
2022-08-24T19:06:05.406Z,37.12
2022-08-24T19:08:36.728Z,37.47
2022-08-24T19:11:06.903Z,37.49
2022-08-24T19:13:38.831Z,37.55
2022-08-24T19:16:07.982Z,37.43
2022-08-24T19:18:38.617Z,37.39
2022-08-24T19:21:07.845Z,37.32
2022-08-24T19:23:39.083Z,37.26
2022-08-24T19:26:08.549Z,37.32
2022-08-24T19:28:40.073Z,37.40
2022-08-24T19:31:12.419Z,37.28
2022-08-24T19:33:45.760Z,37.42
2022-08-24T19:36:16.429Z,37.47
2022-08-24T19:38:45.848Z,37.55
2022-08-24T19:41:15.711Z,37.69
2022-08-24T19:44:12.676Z,37.95
2022-08-24T19:46:43.714Z,37.88
2022-08-24T19:49:14.244Z,38.10
2022-08-24T19:51:43.717Z,37.98
2022-08-24T19:54:13.564Z,37.69
2022-08-24T19:56:42.734Z,37.71
2022-08-24T19:59:27.308Z,37.71
2022-08-24T20:01:57.650Z,37.61
2022-08-24T20:04:27.423Z,37.56
2022-08-24T20:06:57.282Z,37.57
2022-08-24T20:09:28.539Z,37.59
2022-08-24T20:11:57.374Z,37.37
2022-08-24T20:14:27.171Z,37.40
2022-08-24T20:16:57.036Z,37.52
2022-08-24T20:19:27.685Z,37.64
2022-08-24T20:21:57.792Z,37.68
2022-08-24T20:24:27.328Z,37.75
2022-08-24T20:26:58.020Z,37.69
2022-08-24T20:29:28.364Z,37.66
2022-08-24T20:32:00.051Z,37.69
2022-08-24T20:34:30.177Z,37.72
2022-08-24T20:37:00.108Z,37.77
2022-08-24T20:39:30.126Z,37.92
2022-08-24T20:41:59.903Z,38.41
2022-08-24T20:44:31.111Z,38.54
2022-08-24T20:47:01.137Z,38.32
2022-08-24T20:49:31.302Z,38.63
2022-08-24T20:52:01.362Z,38.88
2022-08-24T20:54:31.650Z,39.16
2022-08-24T20:57:01.858Z,39.59
2022-08-24T20:59:31.975Z,39.79
2022-08-24T21:02:02.777Z,39.68
2022-08-24T21:04:32.549Z,40.10
2022-08-24T21:07:02.017Z,40.22
2022-08-24T21:09:32.189Z,40.35
2022-08-24T21:12:01.798Z,40.42
2022-08-24T21:14:30.818Z,40.65
2022-08-24T21:17:00.726Z,40.94
2022-08-24T21:19:31.039Z,41.32
2022-08-24T21:22:01.011Z,41.46
2022-08-24T21:24:30.980Z,41.61
2022-08-24T21:27:01.789Z,41.89
2022-08-24T21:29:31.278Z,41.86
2022-08-24T21:32:19.189Z,42.18
2022-08-24T21:34:48.092Z,42.12
2022-08-24T21:37:18.129Z,42.56
2022-08-24T21:39:47.119Z,42.50
2022-08-24T21:42:17.285Z,42.75
2022-08-24T21:44:49.261Z,42.82
2022-08-24T21:47:19.170Z,42.76
2022-08-24T21:49:51.004Z,43.02
2022-08-24T21:52:20.065Z,43.30
2022-08-24T21:54:51.709Z,43.38
2022-08-24T21:57:22.619Z,43.76
2022-08-24T21:59:53.849Z,43.52
2022-08-24T22:02:23.065Z,43.63
2022-08-24T22:04:56.269Z,43.56
2022-08-24T22:07:27.554Z,43.67
2022-08-24T22:09:57.706Z,44.08
2022-08-24T22:12:27.994Z,44.22
2022-08-24T22:14:58.480Z,44.66
2022-08-24T22:17:28.150Z,44.68
2022-08-24T22:19:59.524Z,44.94
2022-08-24T22:22:30.164Z,45.00
2022-08-24T22:25:00.032Z,44.96
2022-08-24T22:27:29.458Z,44.87
2022-08-24T22:30:00.352Z,45.50
2022-08-24T22:32:30.413Z,45.88
2022-08-24T22:34:59.987Z,45.86
2022-08-24T22:37:29.693Z,46.08
2022-08-24T22:39:59.542Z,46.12
2022-08-24T22:42:29.534Z,46.02
2022-08-24T22:45:01.111Z,46.32
2022-08-24T22:47:32.003Z,46.12
2022-08-24T22:50:03.978Z,45.91
2022-08-24T22:52:33.937Z,46.06
2022-08-24T22:55:05.472Z,46.60
2022-08-24T22:57:34.943Z,46.67
2022-08-24T23:00:08.570Z,46.66
2022-08-24T23:02:39.171Z,46.60
2022-08-24T23:05:09.587Z,46.82
2022-08-24T23:07:40.313Z,46.95
2022-08-24T23:10:13.179Z,47.20
2022-08-24T23:12:42.227Z,47.44
2022-08-24T23:15:13.832Z,47.39
2022-08-24T23:17:42.935Z,47.63
2022-08-24T23:20:12.534Z,47.75
2022-08-24T23:22:43.192Z,47.65
2022-08-24T23:25:12.924Z,47.57
2022-08-24T23:27:42.364Z,47.60
2022-08-24T23:30:13.927Z,47.60
2022-08-24T23:32:43.434Z,47.97
2022-08-24T23:35:13.574Z,48.20
2022-08-24T23:37:43.490Z,48.32
2022-08-24T23:40:13.700Z,48.75
2022-08-24T23:42:43.807Z,48.72
2022-08-24T23:45:13.756Z,48.75
2022-08-24T23:47:44.162Z,48.87
2022-08-24T23:50:14.408Z,48.88
2022-08-24T23:52:44.386Z,48.89
2022-08-24T23:55:21.228Z,49.00
2022-08-24T23:57:45.589Z,49.09
